Time;durP1;ratioP1;P1;durP2;ratioP2;P2;SDS_P1;SDS_P2;PMS_P1;PMS_P2;Temp;Humidity;BMP_temperature;BMP_pressure;BME280_temperature;BME280_humidity;BME280_pressure;Samples;Min_cycle;Max_cycle;Signal;HPM_P1;HPM_P2
2024/04/08 00:00:51;;;;;;;;;;;;;;;16.93;89.79;97300.41;5066654;28;19947;-49
2024/04/08 00:03:16;;;;;;;;;;;;;;;16.79;89.65;97301.81;5065393;28;19978;-49
2024/04/08 00:05:42;;;;;;;;;;;;;;;16.99;90.24;97304.28;5065334;28;19958;-52
2024/04/08 00:08:10;;;;;;;;;;;;;;;16.98;88.96;97301.78;5062417;28;19942;-49
2024/04/08 00:10:36;;;;;;;;;;;;;;;16.93;86.49;97295.16;5059827;28;19945;-49
2024/04/08 00:13:01;;;;;;;;;;;;;;;16.92;88.01;97296.13;5058869;28;19928;-50
2024/04/08 00:15:27;;;;;;;;;;;;;;;16.77;90.41;97294.06;5059673;28;20246;-50
2024/04/08 00:17:52;;;;;;;;;;;;;;;16.69;91.84;97293.16;5060923;28;19920;-49
2024/04/08 00:20:19;;;;;;;;;;;;;;;16.77;91.26;97298.53;5059964;28;19977;-50
2024/04/08 00:22:46;;;;;;;;;;;;;;;16.65;92.09;97289.97;5059347;28;19940;-50
2024/04/08 00:25:11;;;;;;;;;;;;;;;16.46;94.62;97286.53;5060772;28;19961;-49
2024/04/08 00:27:37;;;;;;;;;;;;;;;16.69;93.06;97285.28;5061937;28;20430;-51
2024/04/08 00:30:04;;;;;;;;;;;;;;;16.55;92.63;97277.81;5061899;28;19924;-49
2024/04/08 00:32:29;;;;;;;;;;;;;;;16.52;92.82;97280.72;5057416;28;19939;-51
2024/04/08 00:34:54;;;;;;;;;;;;;;;16.51;93.52;97289.56;5056819;28;20259;-50
2024/04/08 00:37:19;;;;;;;;;;;;;;;16.67;91.50;97287.19;5060761;28;20304;-49
2024/04/08 00:39:45;;;;;;;;;;;;;;;16.71;87.83;97283.31;5056523;28;19998;-48
2024/04/08 00:42:10;;;;;;;;;;;;;;;16.50;92.39;97280.84;5057170;28;20422;-49
2024/04/08 00:44:35;;;;;;;;;;;;;;;16.49;92.72;97267.88;5060863;28;19924;-50
2024/04/08 00:47:00;;;;;;;;;;;;;;;16.43;92.72;97278.94;5062255;28;19932;-49
2024/04/08 00:49:27;;;;;;;;;;;;;;;16.45;93.32;97280.47;5062443;28;19920;-50
2024/04/08 00:51:54;;;;;;;;;;;;;;;16.42;93.83;97278.09;5059753;28;19953;-49
2024/04/08 00:54:19;;;;;;;;;;;;;;;16.65;91.00;97278.63;5063724;28;19935;-52
2024/04/08 00:56:44;;;;;;;;;;;;;;;16.28;92.46;97273.25;5056548;28;19935;-48
2024/04/08 00:59:12;;;;;;;;;;;;;;;16.12;94.24;97280.00;5058485;28;19933;-51
2024/04/08 01:01:38;;;;;;;;;;;;;;;16.13;94.50;97279.88;5055413;28;19930;-52
2024/04/08 01:04:04;;;;;;;;;;;;;;;16.36;92.21;97272.56;5058873;28;19949;-51
2024/04/08 01:06:29;;;;;;;;;;;;;;;16.15;93.85;97280.56;5061754;28;19949;-53
2024/04/08 01:08:54;;;;;;;;;;;;;;;16.28;93.20;97264.50;5055327;28;20363;-49
2024/04/08 01:11:20;;;;;;;;;;;;;;;16.32;93.84;97263.28;5057988;28;19937;-48
2024/04/08 01:13:45;;;;;;;;;;;;;;;16.19;94.44;97275.88;5056743;28;20303;-48
2024/04/08 01:16:10;;;;;;;;;;;;;;;16.01;96.25;97267.00;5056980;28;19945;-48
2024/04/08 01:18:36;;;;;;;;;;;;;;;16.10;96.91;97266.19;5055562;28;20351;-51
2024/04/08 01:21:01;;;;;;;;;;;;;;;16.05;96.57;97263.16;5056036;28;19916;-48
2024/04/08 01:23:28;;;;;;;;;;;;;;;16.19;95.79;97265.34;5065610;28;19917;-48
2024/04/08 01:25:53;;;;;;;;;;;;;;;16.19;95.26;97270.63;5058965;28;20387;-48
2024/04/08 01:28:18;;;;;;;;;;;;;;;16.11;96.00;97263.44;5060957;28;20030;-51
2024/04/08 01:30:43;;;;;;;;;;;;;;;16.24;96.36;97252.66;5059972;28;19939;-48
2024/04/08 01:33:08;;;;;;;;;;;;;;;16.39;90.87;97240.78;5062985;28;19978;-49
2024/04/08 01:35:34;;;;;;;;;;;;;;;16.37;90.23;97250.56;5055450;28;20373;-48
2024/04/08 01:38:00;;;;;;;;;;;;;;;16.28;94.33;97238.25;5056164;28;19939;-49
2024/04/08 01:40:25;;;;;;;;;;;;;;;16.06;96.38;97234.16;5056013;28;19924;-50
2024/04/08 01:42:50;;;;;;;;;;;;;;;15.85;99.27;97228.19;5061226;28;19940;-51
2024/04/08 01:45:16;;;;;;;;;;;;;;;15.94;99.27;97234.41;5063431;28;19916;-48
2024/04/08 01:47:41;;;;;;;;;;;;;;;16.02;99.04;97232.75;5056414;28;19927;-48
2024/04/08 01:50:06;;;;;;;;;;;;;;;15.93;99.35;97230.13;5063993;28;20024;-49
2024/04/08 01:52:31;;;;;;;;;;;;;;;15.92;98.76;97236.34;5054816;28;19938;-51
2024/04/08 01:54:57;;;;;;;;;;;;;;;15.93;98.77;97232.75;5062329;28;19919;-50
2024/04/08 01:57:22;;;;;;;;;;;;;;;15.99;98.65;97226.94;5056332;28;19920;-48
2024/04/08 01:59:47;;;;;;;;;;;;;;;16.13;96.77;97222.13;5054861;28;19979;-51
2024/04/08 02:02:12;;;;;;;;;;;;;;;15.81;98.67;97225.97;5057126;28;19934;-51
2024/04/08 02:04:37;;;;;;;;;;;;;;;15.87;100.00;97233.28;5063521;28;19949;-51
2024/04/08 02:07:03;;;;;;;;;;;;;;;15.80;100.00;97221.69;5059366;28;19953;-50
2024/04/08 02:09:28;;;;;;;;;;;;;;;15.90;100.00;97223.34;5057565;28;19938;-48
2024/04/08 02:11:53;;;;;;;;;;;;;;;15.88;100.00;97224.44;5054840;28;19948;-49
2024/04/08 02:14:18;;;;;;;;;;;;;;;16.00;99.16;97218.09;5058173;28;19923;-48
2024/04/08 02:16:44;;;;;;;;;;;;;;;15.86;99.96;97215.91;5058834;28;19941;-51
2024/04/08 02:19:10;;;;;;;;;;;;;;;15.80;99.58;97216.44;5060177;28;19913;-49
2024/04/08 02:21:35;;;;;;;;;;;;;;;15.52;100.00;97218.09;5059484;28;19917;-48
2024/04/08 02:24:00;;;;;;;;;;;;;;;16.13;100.00;97223.91;5059484;28;20068;-51
2024/04/08 02:26:25;;;;;;;;;;;;;;;15.80;100.00;97226.94;5059454;28;19958;-51
2024/04/08 02:28:50;;;;;;;;;;;;;;;15.80;100.00;97229.56;5058549;28;19949;-51
2024/04/08 02:31:16;;;;;;;;;;;;;;;15.84;100.00;97233.59;5059817;28;19916;-51
2024/04/08 02:33:41;;;;;;;;;;;;;;;15.58;100.00;97235.06;5059326;28;19939;-51
2024/04/08 02:36:07;;;;;;;;;;;;;;;15.56;100.00;97229.13;5058966;28;20010;-51
2024/04/08 02:38:32;;;;;;;;;;;;;;;15.62;100.00;97233.84;5060908;28;20311;-47
2024/04/08 02:40:58;;;;;;;;;;;;;;;15.51;100.00;97236.56;5059495;28;20355;-50
2024/04/08 02:43:23;;;;;;;;;;;;;;;15.58;100.00;97242.94;5067845;28;19948;-51
2024/04/08 02:45:49;;;;;;;;;;;;;;;15.45;100.00;97253.69;5073350;28;19948;-51
2024/04/08 02:48:15;;;;;;;;;;;;;;;15.50;100.00;97271.63;5072147;28;20495;-51
2024/04/08 02:50:40;;;;;;;;;;;;;;;15.17;100.00;97258.81;5071270;28;20087;-50
2024/04/08 02:53:06;;;;;;;;;;;;;;;15.30;100.00;97259.41;5060717;28;20100;-51
2024/04/08 02:55:31;;;;;;;;;;;;;;;15.48;100.00;97260.44;5065734;28;19933;-48
2024/04/08 02:57:56;;;;;;;;;;;;;;;15.24;100.00;97259.94;5061946;28;19923;-48
2024/04/08 03:00:21;;;;;;;;;;;;;;;15.30;100.00;97259.41;5066184;28;19933;-48
2024/04/08 03:02:46;;;;;;;;;;;;;;;15.17;100.00;97259.59;5058226;28;20014;-52
2024/04/08 03:05:12;;;;;;;;;;;;;;;15.25;100.00;97272.06;5059198;28;19955;-52
2024/04/08 03:07:37;;;;;;;;;;;;;;;15.03;100.00;97261.78;5058139;28;19942;-51
2024/04/08 03:10:03;;;;;;;;;;;;;;;14.89;100.00;97262.13;5059089;28;19943;-51
2024/04/08 03:12:28;;;;;;;;;;;;;;;14.78;100.00;97264.81;5062401;28;19938;-51
2024/04/08 03:14:53;;;;;;;;;;;;;;;14.79;100.00;97269.09;5057632;28;19978;-48
2024/04/08 03:17:18;;;;;;;;;;;;;;;14.77;100.00;97271.03;5065536;28;19999;-52
2024/04/08 03:19:43;;;;;;;;;;;;;;;14.83;100.00;97268.69;5065310;28;20024;-50
2024/04/08 03:22:09;;;;;;;;;;;;;;;14.84;100.00;97272.16;5064313;28;20033;-50
2024/04/08 03:24:34;;;;;;;;;;;;;;;14.74;100.00;97271.25;5065284;28;19942;-48
2024/04/08 03:26:59;;;;;;;;;;;;;;;14.79;100.00;97274.34;5063832;28;19966;-48
2024/04/08 03:29:24;;;;;;;;;;;;;;;14.69;100.00;97278.72;5066560;28;19916;-48
2024/04/08 03:31:51;;;;;;;;;;;;;;;14.74;100.00;97284.38;5065737;28;19927;-48
2024/04/08 03:34:16;;;;;;;;;;;;;;;14.61;100.00;97278.50;5063370;28;19928;-49
2024/04/08 03:36:42;;;;;;;;;;;;;;;14.62;100.00;97288.03;5057380;28;20356;-48
2024/04/08 03:39:07;;;;;;;;;;;;;;;14.63;100.00;97284.47;5068256;28;19942;-49
2024/04/08 03:41:33;;;;;;;;;;;;;;;14.51;100.00;97296.75;5064370;28;19942;-48
2024/04/08 03:43:58;;;;;;;;;;;;;;;14.58;100.00;97297.09;5064407;28;20433;-48
2024/04/08 03:46:23;;;;;;;;;;;;;;;14.51;100.00;97290.72;5064584;28;20031;-48
2024/04/08 03:48:48;;;;;;;;;;;;;;;14.19;100.00;97297.75;5065382;28;20363;-48
2024/04/08 03:51:15;;;;;;;;;;;;;;;14.01;100.00;97292.22;5060007;28;19968;-48
2024/04/08 03:53:40;;;;;;;;;;;;;;;14.16;100.00;97298.00;5060116;28;19943;-48
2024/04/08 03:56:07;;;;;;;;;;;;;;;14.13;100.00;97312.16;5063069;28;20657;-49
2024/04/08 03:58:32;;;;;;;;;;;;;;;14.26;100.00;97309.41;5071584;28;20235;-49
2024/04/08 04:00:58;;;;;;;;;;;;;;;14.21;100.00;97311.53;5068343;28;19924;-48
2024/04/08 04:03:23;;;;;;;;;;;;;;;14.07;100.00;97317.03;5064202;28;19938;-48
2024/04/08 04:05:48;;;;;;;;;;;;;;;14.42;100.00;97308.00;5067938;28;20060;-49
2024/04/08 04:08:13;;;;;;;;;;;;;;;14.19;100.00;97310.84;5064729;28;20326;-49
2024/04/08 04:10:38;;;;;;;;;;;;;;;14.09;100.00;97315.97;5056503;28;20362;-49
2024/04/08 04:13:04;;;;;;;;;;;;;;;13.83;100.00;97319.84;5065421;28;20020;-50
2024/04/08 04:15:29;;;;;;;;;;;;;;;13.94;100.00;97311.13;5055890;28;19916;-49
2024/04/08 04:17:54;;;;;;;;;;;;;;;13.86;100.00;97308.31;5063234;28;19913;-51
2024/04/08 04:20:21;;;;;;;;;;;;;;;13.87;100.00;97299.50;5056620;28;19912;-51
2024/04/08 04:22:46;;;;;;;;;;;;;;;13.91;100.00;97293.09;5059358;28;19916;-50
2024/04/08 04:25:12;;;;;;;;;;;;;;;13.92;100.00;97285.13;5056333;28;19926;-49
2024/04/08 04:27:37;;;;;;;;;;;;;;;13.73;100.00;97297.16;5055899;28;20371;-49
2024/04/08 04:30:02;;;;;;;;;;;;;;;13.58;100.00;97299.22;5062395;28;20339;-50
2024/04/08 04:32:28;;;;;;;;;;;;;;;13.63;100.00;97309.34;5057178;28;19933;-49
2024/04/08 04:34:53;;;;;;;;;;;;;;;14.11;100.00;97302.78;5055670;28;20068;-49
2024/04/08 04:37:18;;;;;;;;;;;;;;;13.62;100.00;97305.03;5055708;28;19942;-49
2024/04/08 04:39:43;;;;;;;;;;;;;;;13.38;100.00;97305.19;5055440;28;19939;-49
2024/04/08 04:42:09;;;;;;;;;;;;;;;13.42;100.00;97309.22;5056406;28;20035;-49
2024/04/08 04:44:34;;;;;;;;;;;;;;;13.42;100.00;97309.22;5058091;28;19932;-49
2024/04/08 04:46:59;;;;;;;;;;;;;;;13.39;100.00;97308.63;5059697;28;20001;-49
2024/04/08 04:49:24;;;;;;;;;;;;;;;13.36;100.00;97309.72;5067617;28;19917;-49
2024/04/08 04:51:50;;;;;;;;;;;;;;;13.38;100.00;97317.44;5059972;28;19945;-49
2024/04/08 04:54:16;;;;;;;;;;;;;;;13.20;100.00;97308.41;5064751;28;19948;-49
2024/04/08 04:56:41;;;;;;;;;;;;;;;13.50;100.00;97311.25;5066656;28;19986;-48
2024/04/08 04:59:07;;;;;;;;;;;;;;;13.27;100.00;97325.28;5061264;28;19929;-49
2024/04/08 05:01:33;;;;;;;;;;;;;;;13.34;100.00;97326.44;5059788;28;19979;-48
2024/04/08 05:03:59;;;;;;;;;;;;;;;13.37;100.00;97321.00;5060833;28;19989;-49
2024/04/08 05:06:24;;;;;;;;;;;;;;;13.20;100.00;97311.03;5062678;28;20015;-49
2024/04/08 05:08:50;;;;;;;;;;;;;;;13.34;100.00;97310.78;5059025;28;19930;-49
2024/04/08 05:11:16;;;;;;;;;;;;;;;13.40;100.00;97325.97;5059561;28;19931;-49
2024/04/08 05:13:41;;;;;;;;;;;;;;;13.42;100.00;97321.44;5061734;28;19931;-50
2024/04/08 05:16:06;;;;;;;;;;;;;;;13.33;100.00;97335.25;5059338;28;19912;-50
2024/04/08 05:18:32;;;;;;;;;;;;;;;13.31;100.00;97334.53;5061315;28;20253;-50
2024/04/08 05:20:58;;;;;;;;;;;;;;;13.69;100.00;97321.91;5056346;28;19977;-49
2024/04/08 05:23:25;;;;;;;;;;;;;;;13.48;100.00;97328.81;5057147;28;19958;-51
2024/04/08 05:25:50;;;;;;;;;;;;;;;13.44;100.00;97325.63;5069341;28;20024;-49
2024/04/08 05:28:16;;;;;;;;;;;;;;;13.62;100.00;97336.41;5062154;28;19985;-49
2024/04/08 05:30:41;;;;;;;;;;;;;;;14.01;100.00;97343.69;5061741;28;20003;-49
2024/04/08 05:33:08;;;;;;;;;;;;;;;13.87;100.00;97341.34;5057086;28;20060;-51
2024/04/08 05:35:33;;;;;;;;;;;;;;;13.64;100.00;97345.78;5062564;28;19941;-50
2024/04/08 05:37:58;;;;;;;;;;;;;;;13.72;100.00;97339.97;5067980;28;19917;-49
2024/04/08 05:40:24;;;;;;;;;;;;;;;13.64;100.00;97329.28;5067767;28;19935;-49
2024/04/08 05:42:50;;;;;;;;;;;;;;;13.93;100.00;97338.25;5060998;28;20364;-51
2024/04/08 05:45:15;;;;;;;;;;;;;;;14.03;100.00;97341.81;5064467;28;19986;-50
2024/04/08 05:47:40;;;;;;;;;;;;;;;13.98;100.00;97333.50;5060531;28;19927;-50
2024/04/08 05:50:06;;;;;;;;;;;;;;;14.22;100.00;97327.13;5062301;28;19927;-49
2024/04/08 05:52:33;;;;;;;;;;;;;;;14.20;100.00;97322.97;5056980;28;19920;-50
2024/04/08 05:54:58;;;;;;;;;;;;;;;14.47;100.00;97326.78;5055082;28;19934;-50
2024/04/08 05:57:24;;;;;;;;;;;;;;;14.65;100.00;97313.97;5064156;28;19974;-50
2024/04/08 05:59:50;;;;;;;;;;;;;;;14.60;100.00;97322.22;5061686;28;20416;-51
2024/04/08 06:02:15;;;;;;;;;;;;;;;14.72;100.00;97321.19;5062085;28;19913;-51
2024/04/08 06:04:40;;;;;;;;;;;;;;;15.01;100.00;97316.09;5058270;28;19912;-51
2024/04/08 06:07:07;;;;;;;;;;;;;;;15.08;99.27;97309.38;5064349;28;20377;-50
2024/04/08 06:09:33;;;;;;;;;;;;;;;15.10;99.13;97312.72;5060198;28;20349;-50
2024/04/08 06:11:58;;;;;;;;;;;;;;;15.46;97.75;97318.28;5060890;28;19942;-49
2024/04/08 06:14:23;;;;;;;;;;;;;;;15.64;97.72;97313.22;5068801;28;19913;-50
2024/04/08 06:16:48;;;;;;;;;;;;;;;15.77;96.55;97316.44;5059830;28;19912;-51
2024/04/08 06:19:13;;;;;;;;;;;;;;;16.22;94.69;97317.63;5064520;28;19913;-50
2024/04/08 06:21:39;;;;;;;;;;;;;;;16.22;92.25;97322.88;5068694;28;19964;-50
2024/04/08 06:24:04;;;;;;;;;;;;;;;16.70;91.28;97315.81;5060584;28;19920;-51
2024/04/08 06:26:29;;;;;;;;;;;;;;;16.54;88.96;97310.28;5069844;28;19953;-52
2024/04/08 06:28:55;;;;;;;;;;;;;;;16.65;89.97;97316.25;5065385;28;19982;-50
2024/04/08 06:31:20;;;;;;;;;;;;;;;16.98;88.52;97328.94;5060032;28;19916;-52
2024/04/08 06:33:45;;;;;;;;;;;;;;;17.41;86.45;97334.47;5064493;28;19972;-50
2024/04/08 06:36:12;;;;;;;;;;;;;;;17.88;83.59;97331.63;5063587;28;20314;-51
2024/04/08 06:38:38;;;;;;;;;;;;;;;17.90;82.07;97334.94;5067406;28;19968;-50
2024/04/08 06:41:03;;;;;;;;;;;;;;;18.42;79.84;97326.31;5061627;28;19973;-52
2024/04/08 06:43:28;;;;;;;;;;;;;;;18.96;77.17;97323.44;5053906;28;20034;-53
2024/04/08 06:45:57;;;;;;;;;;;;;;;19.12;77.38;97326.19;5069191;28;19994;-48
2024/04/08 06:48:23;;;;;;;;;;;;;;;19.49;75.67;97332.03;5067533;28;19925;-50
2024/04/08 06:50:49;;;;;;;;;;;;;;;19.62;73.24;97324.53;5067164;28;19948;-50
2024/04/08 06:53:14;;;;;;;;;;;;;;;19.77;72.09;97322.94;5061336;28;20046;-50
2024/04/08 06:55:39;;;;;;;;;;;;;;;19.72;70.65;97325.22;5065824;28;20258;-51
2024/04/08 06:58:07;;;;;;;;;;;;;;;19.78;70.15;97319.28;5065317;28;20249;-50
2024/04/08 07:00:32;;;;;;;;;;;;;;;19.96;68.59;97322.66;5070313;28;20337;-50
2024/04/08 07:02:58;;;;;;;;;;;;;;;19.59;68.74;97316.91;5059711;28;19921;-49
2024/04/08 07:05:23;;;;;;;;;;;;;;;19.83;68.32;97317.00;5066329;28;19950;-49
2024/04/08 07:07:48;;;;;;;;;;;;;;;20.32;67.13;97313.53;5063636;28;19912;-49
2024/04/08 07:10:14;;;;;;;;;;;;;;;20.71;65.55;97317.19;5060701;28;20004;-48
2024/04/08 07:12:39;;;;;;;;;;;;;;;20.71;64.77;97313.75;5071672;28;19931;-49
2024/04/08 07:15:04;;;;;;;;;;;;;;;20.52;65.54;97312.22;5064802;28;19916;-50
2024/04/08 07:17:29;;;;;;;;;;;;;;;21.04;64.60;97310.13;5065138;28;19944;-49
2024/04/08 07:21:37;;;;;;;;;;;;;;;21.66;63.89;97302.19;5488502;25;20050;-52
2024/04/08 07:24:03;;;;;;;;;;;;;;;22.09;64.20;97301.66;5482019;26;19978;-51
2024/04/08 07:26:29;;;;;;;;;;;;;;;22.12;61.67;97292.53;5492353;25;20338;-49
2024/04/08 07:28:55;;;;;;;;;;;;;;;22.21;60.77;97302.91;5491550;26;19958;-50
2024/04/08 07:31:20;;;;;;;;;;;;;;;22.81;60.26;97301.16;5498112;25;20291;-51
2024/04/08 07:33:45;;;;;;;;;;;;;;;22.64;60.05;97298.84;5489722;25;19958;-50
2024/04/08 07:36:11;;;;;;;;;;;;;;;23.39;58.28;97301.31;5488847;26;19991;-52
2024/04/08 07:38:36;;;;;;;;;;;;;;;23.67;57.83;97293.50;5493203;26;19975;-51
2024/04/08 07:41:02;;;;;;;;;;;;;;;23.48;58.17;97294.88;5484464;25;19973;-52
2024/04/08 07:43:30;;;;;;;;;;;;;;;24.13;56.94;97295.75;5484942;25;20759;-51
2024/04/08 07:45:55;;;;;;;;;;;;;;;26.10;53.19;97289.94;5498829;25;20217;-51
2024/04/08 07:48:20;;;;;;;;;;;;;;;26.22;51.87;97293.69;5502751;26;19928;-50
2024/04/08 07:50:47;;;;;;;;;;;;;;;26.31;51.38;97298.66;5493976;26;19985;-50
2024/04/08 07:53:12;;;;;;;;;;;;;;;26.98;50.25;97295.94;5486185;26;19980;-50
2024/04/08 07:55:37;;;;;;;;;;;;;;;27.36;47.35;97291.59;5489313;26;19970;-52
2024/04/08 07:58:03;;;;;;;;;;;;;;;27.67;47.40;97294.41;5490030;26;19928;-52
2024/04/08 08:00:28;;;;;;;;;;;;;;;27.52;46.67;97294.66;5479045;25;19948;-52
2024/04/08 08:02:54;;;;;;;;;;;;;;;27.30;46.63;97297.75;5473155;26;19962;-50
2024/04/08 08:05:19;;;;;;;;;;;;;;;27.88;45.56;97295.00;5500011;25;19936;-50
2024/04/08 08:07:45;;;;;;;;;;;;;;;28.10;45.14;97301.72;5503549;25;20046;-51
2024/04/08 08:10:10;;;;;;;;;;;;;;;29.32;44.71;97297.66;5501702;25;20211;-50
2024/04/08 08:12:35;;;;;;;;;;;;;;;28.93;44.24;97300.63;5489837;26;20328;-51
2024/04/08 08:15:01;;;;;;;;;;;;;;;28.64;43.67;97298.59;5490952;26;20363;-52
2024/04/08 08:17:29;;;;;;;;;;;;;;;29.63;43.20;97302.94;5506395;25;19928;-50
2024/04/08 08:19:56;;;;;;;;;;;;;;;30.43;41.87;97291.88;5487842;26;20246;-51
2024/04/08 08:22:22;;;;;;;;;;;;;;;30.42;41.30;97292.91;5496954;25;20413;-51
2024/04/08 08:24:48;;;;;;;;;;;;;;;30.97;40.77;97297.91;5483141;26;19989;-50
2024/04/08 08:27:13;;;;;;;;;;;;;;;30.99;40.14;97297.69;5500043;25;19927;-52
2024/04/08 08:29:38;;;;;;;;;;;;;;;31.48;40.12;97308.06;5485554;26;19936;-52
2024/04/08 08:32:04;;;;;;;;;;;;;;;32.16;38.92;97305.31;5474823;26;20375;-50
2024/04/08 08:34:29;;;;;;;;;;;;;;;32.00;39.19;97300.66;5464834;26;19928;-52
2024/04/08 08:36:55;;;;;;;;;;;;;;;32.81;38.54;97303.94;5473780;26;20319;-51
2024/04/08 08:39:20;;;;;;;;;;;;;;;32.71;37.77;97294.81;5481185;26;20372;-50
2024/04/08 08:41:51;;;;;;;;;;;;;;;33.06;38.24;97296.28;5462086;26;19929;-52
2024/04/08 08:44:19;;;;;;;;;;;;;;;32.45;38.07;97293.53;5472679;26;19966;-50
2024/04/08 08:46:44;;;;;;;;;;;;;;;32.12;39.03;97293.38;5464060;26;20239;-50
2024/04/08 08:49:09;;;;;;;;;;;;;;;33.51;38.56;97299.72;5475058;26;19981;-49
2024/04/08 08:51:35;;;;;;;;;;;;;;;33.96;38.12;97303.13;5481893;26;19964;-51
2024/04/08 08:54:00;;;;;;;;;;;;;;;32.40;38.92;97290.72;5467704;26;20052;-50
2024/04/08 08:56:28;;;;;;;;;;;;;;;32.77;38.04;97277.69;5470084;26;19945;-51
2024/04/08 08:58:55;;;;;;;;;;;;;;;31.81;38.83;97274.13;5486090;26;20481;-50
2024/04/08 09:01:21;;;;;;;;;;;;;;;30.57;41.75;97264.59;5491553;26;19934;-51
2024/04/08 09:03:46;;;;;;;;;;;;;;;29.30;41.90;97270.22;5476298;26;19928;-49
2024/04/08 09:06:12;;;;;;;;;;;;;;;29.49;41.71;97253.94;5466617;26;19985;-50
2024/04/08 09:08:38;;;;;;;;;;;;;;;29.17;41.79;97259.59;5469550;26;20655;-50
2024/04/08 09:11:06;;;;;;;;;;;;;;;30.28;41.25;97264.59;5476102;26;19975;-51
2024/04/08 09:13:32;;;;;;;;;;;;;;;29.73;42.43;97257.63;5483472;26;19989;-52
2024/04/08 09:15:58;;;;;;;;;;;;;;;28.98;42.79;97260.63;5476202;26;19965;-50
2024/04/08 09:18:23;;;;;;;;;;;;;;;29.46;42.55;97257.06;5482100;26;19936;-50
2024/04/08 09:20:48;;;;;;;;;;;;;;;29.21;43.68;97247.41;5474390;26;19928;-49
2024/04/08 09:23:14;;;;;;;;;;;;;;;29.35;43.47;97247.06;5475745;26;19976;-50
2024/04/08 09:25:39;;;;;;;;;;;;;;;29.49;42.94;97248.56;5470397;26;19957;-51
2024/04/08 09:28:06;;;;;;;;;;;;;;;29.18;43.21;97245.19;5478636;26;19946;-52
2024/04/08 09:30:32;;;;;;;;;;;;;;;30.19;42.26;97247.16;5474701;26;19940;-51
2024/04/08 09:32:58;;;;;;;;;;;;;;;31.40;41.18;97251.91;5483883;26;20247;-52
2024/04/08 09:35:24;;;;;;;;;;;;;;;31.52;40.45;97258.09;5474042;26;20017;-51
2024/04/08 09:37:52;;;;;;;;;;;;;;;31.51;40.46;97251.09;5483364;26;20342;-51
2024/04/08 09:40:18;;;;;;;;;;;;;;;29.84;41.54;97230.84;5478299;26;19958;-50
2024/04/08 09:42:43;;;;;;;;;;;;;;;30.16;40.99;97234.19;5474477;26;20009;-51
2024/04/08 09:45:09;;;;;;;;;;;;;;;30.64;41.21;97232.28;5472168;26;19964;-51
2024/04/08 09:47:36;;;;;;;;;;;;;;;30.46;40.76;97229.63;5473099;26;19935;-50
2024/04/08 09:50:01;;;;;;;;;;;;;;;30.54;39.82;97237.34;5472474;26;19960;-51
2024/04/08 09:52:27;;;;;;;;;;;;;;;31.23;38.31;97232.97;5475681;26;19992;-51
2024/04/08 09:54:54;;;;;;;;;;;;;;;31.73;37.43;97235.97;5466146;26;19999;-51
2024/04/08 09:57:25;;;;;;;;;;;;;;;30.95;38.23;97230.09;5485778;26;20286;-50
2024/04/08 09:59:53;;;;;;;;;;;;;;;31.05;37.23;97219.59;5480355;26;20349;-51
2024/04/08 10:02:22;;;;;;;;;;;;;;;31.94;37.39;97226.19;5468464;26;19965;-51
2024/04/08 10:04:52;;;;;;;;;;;;;;;31.64;35.08;97220.16;5475695;26;19993;-50
2024/04/08 10:07:18;;;;;;;;;;;;;;;31.24;34.68;97212.25;5476186;26;19928;-51
2024/04/08 10:09:43;;;;;;;;;;;;;;;31.50;35.06;97219.84;5482573;26;19996;-50
2024/04/08 10:12:08;;;;;;;;;;;;;;;32.10;34.33;97214.69;5474748;26;20027;-51
2024/04/08 10:14:34;;;;;;;;;;;;;;;31.93;34.24;97208.41;5473142;26;19959;-53
2024/04/08 10:17:00;;;;;;;;;;;;;;;32.79;33.49;97214.34;5478637;26;20502;-50
2024/04/08 10:19:25;;;;;;;;;;;;;;;32.78;32.97;97212.72;5475326;26;19935;-50
2024/04/08 10:21:59;;;;;;;;;;;;;;;33.08;32.90;97213.19;5476910;26;19940;-51
2024/04/08 10:24:31;;;;;;;;;;;;;;;33.36;32.32;97210.44;5476477;26;20252;-51
2024/04/08 10:27:04;;;;;;;;;;;;;;;33.08;31.57;97202.41;5479176;26;20257;-49
2024/04/08 10:29:31;;;;;;;;;;;;;;;33.30;32.32;97200.63;5472014;26;19981;-50
2024/04/08 10:31:57;;;;;;;;;;;;;;;33.60;32.52;97208.31;5482963;26;20024;-50
2024/04/08 10:34:23;;;;;;;;;;;;;;;32.83;31.78;97196.63;5476793;26;20331;-50
2024/04/08 10:36:49;;;;;;;;;;;;;;;33.82;31.11;97204.59;5484593;26;20418;-50
2024/04/08 10:39:16;;;;;;;;;;;;;;;34.44;30.59;97197.72;5470545;26;19940;-51
2024/04/08 10:41:41;;;;;;;;;;;;;;;33.63;30.65;97195.13;5462519;26;19928;-49
2024/04/08 10:44:08;;;;;;;;;;;;;;;33.38;30.60;97191.25;5472392;26;19936;-50
2024/04/08 10:46:34;;;;;;;;;;;;;;;33.18;29.78;97193.63;5470293;26;19928;-50
2024/04/08 10:48:59;;;;;;;;;;;;;;;32.80;29.00;97194.41;5487381;26;20349;-50
2024/04/08 10:51:25;;;;;;;;;;;;;;;33.65;28.82;97201.09;5475710;26;19940;-49
2024/04/08 10:53:51;;;;;;;;;;;;;;;33.43;29.44;97197.56;5479649;26;20303;-51
2024/04/08 10:56:17;;;;;;;;;;;;;;;33.83;29.14;97192.72;5474275;26;20044;-49
2024/04/08 10:58:42;;;;;;;;;;;;;;;33.86;29.70;97186.78;5470916;26;20327;-49
2024/04/08 11:01:08;;;;;;;;;;;;;;;34.20;29.43;97190.97;5479053;26;19962;-49
2024/04/08 11:03:34;;;;;;;;;;;;;;;33.06;28.66;97182.94;5471632;26;20031;-51
2024/04/08 11:05:59;;;;;;;;;;;;;;;33.48;29.60;97186.00;5470959;26;19948;-49
2024/04/08 11:08:25;;;;;;;;;;;;;;;33.60;29.13;97182.13;5470324;26;19935;-49
2024/04/08 11:10:50;;;;;;;;;;;;;;;33.56;29.41;97178.31;5473857;26;19934;-49
2024/04/08 11:13:15;;;;;;;;;;;;;;;34.03;29.70;97173.19;5470462;26;20508;-50
2024/04/08 11:15:46;;;;;;;;;;;;;;;33.10;29.46;97165.22;5504325;25;20447;-49
2024/04/08 11:18:12;;;;;;;;;;;;;;;32.82;29.31;97165.34;5467413;26;20053;-49
2024/04/08 11:20:37;;;;;;;;;;;;;;;34.66;30.17;97167.91;5471875;26;19947;-49
2024/04/08 11:23:03;;;;;;;;;;;;;;;32.98;31.04;97169.06;5478853;25;20352;-49
2024/04/08 11:25:28;;;;;;;;;;;;;;;33.15;32.35;97181.47;5473229;26;20219;-52
2024/04/08 11:27:54;;;;;;;;;;;;;;;33.12;31.74;97183.84;5482216;26;20289;-52
2024/04/08 11:30:19;;;;;;;;;;;;;;;33.55;32.50;97184.78;5470414;26;20293;-53
2024/04/08 11:32:44;;;;;;;;;;;;;;;32.96;30.55;97172.03;5478934;26;19974;-52
2024/04/08 11:35:09;;;;;;;;;;;;;;;32.56;31.50;97165.97;5479761;26;19993;-51
2024/04/08 11:37:35;;;;;;;;;;;;;;;31.41;32.30;97164.72;5470585;26;20007;-51
2024/04/08 11:40:01;;;;;;;;;;;;;;;32.12;31.75;97163.22;5482525;26;19936;-51
2024/04/08 11:42:26;;;;;;;;;;;;;;;31.73;31.44;97164.91;5473079;26;19965;-52
2024/04/08 11:44:59;;;;;;;;;;;;;;;31.44;31.89;97161.59;5479279;26;19966;-52
2024/04/08 11:47:24;;;;;;;;;;;;;;;31.30;32.12;97168.28;5469267;26;20346;-51
2024/04/08 11:49:49;;;;;;;;;;;;;;;31.60;31.80;97165.16;5475681;26;19928;-51
2024/04/08 11:52:14;;;;;;;;;;;;;;;32.50;31.34;97166.94;5470953;26;19939;-52
2024/04/08 11:54:42;;;;;;;;;;;;;;;33.59;30.55;97169.69;5466812;26;19944;-51
2024/04/08 11:57:08;;;;;;;;;;;;;;;33.19;30.43;97177.22;5483784;26;20017;-53
2024/04/08 11:59:33;;;;;;;;;;;;;;;32.84;30.70;97174.00;5469228;26;19980;-52
2024/04/08 12:01:58;;;;;;;;;;;;;;;33.21;31.81;97179.66;5479692;26;19928;-53
2024/04/08 12:04:24;;;;;;;;;;;;;;;32.82;30.90;97180.69;5473059;26;19959;-51
2024/04/08 12:06:50;;;;;;;;;;;;;;;33.57;31.69;97185.34;5474030;26;19966;-52
2024/04/08 12:09:15;;;;;;;;;;;;;;;33.56;31.41;97189.09;5475692;26;20278;-51
2024/04/08 12:11:42;;;;;;;;;;;;;;;34.16;31.59;97179.03;5467798;26;20059;-52
2024/04/08 12:14:07;;;;;;;;;;;;;;;34.18;30.52;97176.88;5478475;26;19928;-52
2024/04/08 12:16:33;;;;;;;;;;;;;;;34.25;31.06;97182.09;5479284;26;20226;-51
2024/04/08 12:18:58;;;;;;;;;;;;;;;32.73;30.84;97165.97;5471543;26;20531;-51
2024/04/08 12:21:23;;;;;;;;;;;;;;;33.58;31.21;97157.25;5482834;26;20001;-50
2024/04/08 12:23:48;;;;;;;;;;;;;;;32.97;33.41;97168.25;5477879;26;20313;-50
2024/04/08 12:26:15;;;;;;;;;;;;;;;33.35;31.92;97168.31;5473654;26;20338;-51
2024/04/08 12:28:41;;;;;;;;;;;;;;;33.82;32.83;97164.06;5477767;26;19932;-50
2024/04/08 12:31:06;;;;;;;;;;;;;;;34.44;32.62;97165.28;5470596;26;20010;-52
2024/04/08 12:33:32;;;;;;;;;;;;;;;31.58;31.45;97153.81;5474034;26;20066;-51
2024/04/08 12:35:57;;;;;;;;;;;;;;;32.53;32.77;97155.66;5466121;26;19979;-49